シドニー の空港の天気 - METARとTAF

シドニー国際空港 ( YSSY / SYD ) - オーストラリア ニューサウスウェールズ州、Mascot
飛行場実況気象(Metar)
観測時間04/20 03:00 AEST (04/19 17:00 UTC)
風向・風速西北西 2m/s
視程10km以上
天気現象
なし
気温18℃
湿度83%
気圧1018hPa
METARYSSY 191700Z 30004KT CAVOK 18/15 Q1018
過去の天気等 Google飛行場航空写真 Wunderground天気予報

過去48時間のMETAR

飛行場予報(TAF)
発表時間: 4/19 21:14 AEST (4/19 11:14 UTC)
予報対象時間: 19日22時 AEST ~ 21日4時 AEST
風向・風速西北西 4m/s
視程10km以上
なし
20日4時 AEST から
風向・風速南 5m/s
視程10km以上
全天の4割程度の雲 雲底高度 460m
20日10時 AEST から
風向・風速南南東 8m/s
視程10km以上
全天の4割程度の雲 雲底高度 760m
20日20時 AEST から
風向・風速南西 5m/s
視程10km以上
全天の8割程度の雲 雲底高度 760m
TAF YSSY 191114Z 1912/2018 29008KT CAVOK
FM191800 18010KT 9999 SCT015
FM200000 16015KT 9999 SCT025
FM201000 22010KT 9999 BKN025